createdAt,value
2022-12-08T00:01:41.954Z,100297.03
2022-12-08T00:04:10.244Z,100316.72
2022-12-08T00:06:59.730Z,100271.22
2022-12-08T00:09:36.384Z,100297.75
2022-12-08T00:12:11.173Z,100268.78
2022-12-08T00:14:41.291Z,100301.19
2022-12-08T00:17:11.495Z,100253.38
2022-12-08T00:19:40.318Z,100286.16
2022-12-08T00:22:11.233Z,100251.00
2022-12-08T00:24:41.110Z,100289.41
2022-12-08T00:27:10.544Z,100254.19
2022-12-08T00:29:38.966Z,100272.03
2022-12-08T00:32:07.556Z,100272.50
2022-12-08T00:34:36.586Z,100287.88
2022-12-08T00:37:04.566Z,100279.00
2022-12-08T00:39:34.481Z,100255.00
2022-12-08T00:42:17.512Z,100272.50
2022-12-08T00:44:46.936Z,100257.91
2022-12-08T00:47:15.354Z,100255.25
2022-12-08T00:49:43.901Z,100270.94
2022-12-08T00:52:12.711Z,100250.75
2022-12-08T00:54:42.044Z,100273.59
2022-12-08T00:57:10.529Z,100261.78
2022-12-08T00:59:38.313Z,100254.19
2022-12-08T01:02:06.387Z,100262.16
2022-12-08T01:04:34.271Z,100246.38
2022-12-08T01:07:02.717Z,100257.44
2022-12-08T01:09:30.634Z,100204.81
2022-12-08T01:12:00.278Z,100228.84
2022-12-08T01:14:28.548Z,100235.72
2022-12-08T01:16:56.699Z,100223.38
2022-12-08T01:19:24.829Z,100241.69
2022-12-08T01:21:52.622Z,100204.09
2022-12-08T01:24:22.815Z,100224.94
2022-12-08T01:26:51.837Z,100232.44
2022-12-08T01:29:22.022Z,100222.66
2022-12-08T01:31:49.882Z,100240.97
2022-12-08T01:34:18.092Z,100213.78
2022-12-08T01:36:47.496Z,100228.56
2022-12-08T01:39:17.756Z,100221.38
2022-12-08T01:41:48.387Z,100203.38
2022-12-08T01:45:03.393Z,100246.56
2022-12-08T01:47:38.649Z,100225.94
2022-12-08T01:50:08.308Z,100237.97
2022-12-08T01:52:39.511Z,100192.47
2022-12-08T01:55:12.374Z,100208.53
2022-12-08T01:57:44.677Z,100191.59
2022-12-08T02:00:23.982Z,100200.09
2022-12-08T02:03:00.613Z,100199.13
2022-12-08T02:05:37.133Z,100177.63
2022-12-08T02:08:24.060Z,100204.72
2022-12-08T02:11:07.473Z,100194.94
2022-12-08T02:13:35.729Z,100194.28
2022-12-08T02:16:12.855Z,100169.75
2022-12-08T02:19:30.275Z,100186.31
2022-12-08T02:22:11.673Z,100166.41
2022-12-08T02:24:49.770Z,100173.72
2022-12-08T02:27:49.922Z,100168.84
2022-12-08T02:30:26.217Z,100207.53
2022-12-08T02:33:41.359Z,100219.41
2022-12-08T02:36:18.713Z,100169.69
2022-12-08T02:58:20.250Z,100135.88
2022-12-08T03:01:18.069Z,100135.88
2022-12-08T03:03:58.513Z,100169.75
2022-12-08T03:06:35.727Z,100122.13
2022-12-08T03:09:10.865Z,100141.34
2022-12-08T03:11:47.405Z,100135.16
2022-12-08T03:14:37.336Z,100136.91
2022-12-08T03:17:11.885Z,100151.72
2022-12-08T03:19:47.000Z,100135.28
2022-12-08T03:22:21.980Z,100116.50
2022-12-08T03:24:51.292Z,100103.50
2022-12-08T03:27:28.480Z,100143.84
2022-12-08T03:30:05.221Z,100097.88
2022-12-08T03:33:04.145Z,100100.16
2022-12-08T03:35:45.486Z,100093.63
2022-12-08T03:38:19.059Z,100096.31
2022-12-08T03:41:09.901Z,100083.66
2022-12-08T03:43:55.017Z,100089.09
2022-12-08T03:46:38.318Z,100076.69
2022-12-08T03:52:22.943Z,100115.97
2022-12-08T03:54:59.037Z,100074.09
2022-12-08T03:57:27.466Z,100091.81
2022-12-08T03:59:56.041Z,100108.81
2022-12-08T04:02:30.810Z,100078.88
2022-12-08T04:05:00.963Z,100095.16
2022-12-08T04:07:28.865Z,100120.88
2022-12-08T04:12:40.013Z,100088.56
2022-12-08T04:15:09.785Z,100127.50
2022-12-08T04:17:38.622Z,100136.19
2022-12-08T04:24:01.011Z,100131.19
2022-12-08T04:26:31.059Z,100078.34
2022-12-08T04:28:59.570Z,100104.13
2022-12-08T04:31:27.669Z,100108.03
2022-12-08T04:33:56.398Z,100112.53
2022-12-08T04:36:28.818Z,100076.25
2022-12-08T04:42:46.684Z,100102.41
2022-12-08T04:45:23.543Z,100091.19
2022-12-08T04:47:51.925Z,100065.94
2022-12-08T04:50:37.957Z,100059.59
2022-12-08T04:53:06.675Z,100115.72
2022-12-08T04:55:41.836Z,100100.41
2022-12-08T04:58:14.494Z,100075.97
2022-12-08T05:00:44.890Z,100102.03
2022-12-08T05:03:13.654Z,100058.06
2022-12-08T05:05:47.093Z,100073.16
2022-12-08T05:11:48.508Z,100080.50
2022-12-08T05:40:28.847Z,100065.56
2022-12-08T05:42:56.708Z,100074.34
2022-12-08T05:45:24.975Z,100048.72
2022-12-08T05:47:54.244Z,100070.72
2022-12-08T05:50:22.117Z,100059.22
2022-12-08T05:52:50.400Z,100070.06
2022-12-08T05:55:19.019Z,100047.91
2022-12-08T05:57:48.541Z,100069.09
2022-12-08T06:00:17.597Z,100047.28
2022-12-08T06:02:45.569Z,100039.59
2022-12-08T06:05:13.776Z,100060.59
2022-12-08T06:07:42.001Z,100025.13
2022-12-08T06:10:10.874Z,100027.13
2022-12-08T06:12:39.220Z,100047.28
2022-12-08T06:15:09.861Z,100019.41
2022-12-08T06:17:37.748Z,100040.50
2022-12-08T06:20:07.366Z,100059.31
2022-12-08T06:22:35.827Z,100037.78
2022-12-08T06:25:07.210Z,100041.66
2022-12-08T06:27:37.668Z,100031.28
2022-12-08T06:30:07.669Z,100054.34
2022-12-08T06:32:38.087Z,100041.06
2022-12-08T06:35:06.621Z,100052.44
2022-12-08T06:37:34.684Z,100054.25
2022-12-08T06:40:03.278Z,100050.81
2022-12-08T06:42:47.150Z,100045.28
2022-12-08T06:45:16.463Z,100054.78
2022-12-08T06:47:46.316Z,100047.84
2022-12-08T06:50:15.266Z,100054.16
2022-12-08T06:52:54.247Z,99994.53
2022-12-08T06:55:57.531Z,100049.28
2022-12-08T06:58:15.444Z,100055.16
2022-12-08T07:00:43.837Z,100052.06
2022-12-08T07:03:14.774Z,100051.06
2022-12-08T07:05:43.179Z,100047.19
2022-12-08T07:08:11.095Z,100011.50
2022-12-08T07:10:39.789Z,100054.31
2022-12-08T07:13:07.621Z,100046.66
2022-12-08T07:15:38.326Z,100049.72
2022-12-08T07:18:06.259Z,100045.38
2022-12-08T07:20:36.390Z,100058.41
2022-12-08T07:23:04.132Z,100060.03
2022-12-08T07:25:32.475Z,100027.13
2022-12-08T07:28:00.217Z,100049.81
2022-12-08T07:30:27.922Z,100051.28
2022-12-08T07:32:56.117Z,100049.47
2022-12-08T07:35:24.139Z,100043.84
2022-12-08T07:37:54.307Z,100022.69
2022-12-08T07:40:22.120Z,100030.19
2022-12-08T07:42:49.889Z,100039.59
2022-12-08T07:45:18.073Z,100038.78
2022-12-08T07:47:45.792Z,100057.50
2022-12-08T07:50:13.983Z,100031.84
2022-12-08T07:52:41.748Z,100042.41
2022-12-08T07:55:11.855Z,100051.09
2022-12-08T07:57:39.612Z,100047.28
2022-12-08T08:00:08.998Z,100052.53
2022-12-08T08:02:37.086Z,100042.75
2022-12-08T08:05:05.612Z,100056.00
2022-12-08T08:07:34.337Z,100056.16
2022-12-08T08:10:05.010Z,100021.97
2022-12-08T08:12:34.648Z,100038.88
2022-12-08T08:15:02.819Z,100031.91
2022-12-08T08:17:32.022Z,100040.53
2022-12-08T08:19:59.962Z,100046.03
2022-12-08T08:22:28.799Z,100048.28
2022-12-08T08:24:56.527Z,100042.22
2022-12-08T08:27:25.416Z,100038.78
2022-12-08T08:29:55.401Z,100024.13
2022-12-08T08:32:26.016Z,100044.66
2022-12-08T08:34:54.018Z,100039.59
2022-12-08T08:37:22.398Z,100033.09
2022-12-08T08:39:50.825Z,100034.72
2022-12-08T08:42:19.162Z,100022.84
2022-12-08T08:44:46.940Z,100027.22
2022-12-08T08:47:16.820Z,100035.72
2022-12-08T08:49:44.640Z,100030.31
2022-12-08T08:52:12.804Z,100014.19
2022-12-08T08:54:40.698Z,100034.72
2022-12-08T08:57:08.789Z,100028.84
2022-12-08T08:59:36.555Z,100020.78
2022-12-08T09:02:05.162Z,100028.22
2022-12-08T09:04:34.814Z,100018.25
2022-12-08T09:07:03.401Z,100004.88
2022-12-08T09:09:31.377Z,100022.97
2022-12-08T09:11:59.126Z,100016.25
2022-12-08T09:14:27.906Z,100002.97
2022-12-08T09:16:55.875Z,99972.31
2022-12-08T09:19:24.371Z,99972.31
2022-12-08T09:21:53.698Z,100014.28
2022-12-08T09:24:21.594Z,99984.63
2022-12-08T09:26:50.097Z,100011.56
2022-12-08T09:29:18.500Z,100015.63
2022-12-08T09:31:46.929Z,100018.41
2022-12-08T09:34:15.290Z,100014.81
2022-12-08T09:36:43.515Z,100013.34
2022-12-08T09:39:12.871Z,100014.19
2022-12-08T09:41:48.574Z,100011.56
2022-12-08T09:44:45.276Z,100010.38
2022-12-08T09:47:20.993Z,100013.00
2022-12-08T09:49:54.730Z,100016.44
2022-12-08T09:52:27.091Z,99974.81
2022-12-08T09:55:00.002Z,100009.19
2022-12-08T09:57:28.847Z,100001.16
2022-12-08T10:00:01.345Z,99992.00
2022-12-08T10:02:31.252Z,100000.41
2022-12-08T10:05:01.577Z,100009.09
2022-12-08T10:07:39.462Z,99986.31
2022-12-08T10:10:20.328Z,100012.59
2022-12-08T10:12:56.105Z,100010.63
2022-12-08T10:15:45.696Z,100002.75
2022-12-08T10:18:18.446Z,99992.63
2022-12-08T10:20:48.441Z,99967.19
2022-12-08T10:23:27.362Z,99994.50
2022-12-08T10:26:02.403Z,99994.22
2022-12-08T10:28:31.431Z,99986.16
2022-12-08T10:30:59.185Z,99974.69
2022-12-08T10:33:29.077Z,99985.03
2022-12-08T10:36:00.126Z,99984.66
2022-12-08T10:38:31.653Z,99988.16
2022-12-08T10:41:08.339Z,99983.00
2022-12-08T10:43:39.185Z,99962.53
2022-12-08T10:46:13.588Z,99969.91
2022-12-08T10:48:50.624Z,99970.38
2022-12-08T10:51:30.958Z,99968.34
2022-12-08T10:53:59.294Z,99960.03
2022-12-08T10:56:30.216Z,99970.16
2022-12-08T10:59:20.354Z,99964.31
2022-12-08T11:01:50.686Z,99962.28
2022-12-08T11:04:20.951Z,99956.66
2022-12-08T11:06:51.017Z,99950.41
2022-12-08T11:09:38.832Z,99953.28
2022-12-08T11:12:15.892Z,99946.00
2022-12-08T11:14:52.032Z,99935.34
2022-12-08T11:17:27.613Z,99946.66
2022-12-08T11:20:00.448Z,99933.69
2022-12-08T11:22:32.770Z,99932.94
2022-12-08T11:25:03.511Z,99929.75
2022-12-08T11:27:35.175Z,99929.75
2022-12-08T11:30:06.182Z,99922.03
2022-12-08T11:32:40.598Z,99920.47
2022-12-08T11:35:11.929Z,99915.03
2022-12-08T11:37:42.030Z,99914.06
2022-12-08T11:40:18.880Z,99903.16
2022-12-08T11:42:56.619Z,99908.88
2022-12-08T11:45:29.336Z,99901.38
2022-12-08T11:48:08.767Z,99900.00
2022-12-08T11:50:43.905Z,99903.88
2022-12-08T11:53:20.307Z,99857.22
2022-12-08T11:55:53.293Z,99900.47
2022-12-08T11:58:28.169Z,99900.50
2022-12-08T12:00:56.565Z,99902.53
2022-12-08T12:03:31.723Z,99885.16
2022-12-08T12:06:38.013Z,99866.28
2022-12-08T12:09:15.729Z,99887.22
2022-12-08T12:12:11.774Z,99881.56
2022-12-08T12:15:29.720Z,99881.56
2022-12-08T12:18:00.824Z,99867.38
2022-12-08T12:20:32.218Z,99890.84
2022-12-08T12:23:06.181Z,99824.78
2022-12-08T12:25:37.002Z,99843.41
2022-12-08T12:28:09.188Z,99864.56
2022-12-08T12:30:55.651Z,99872.25
2022-12-08T12:33:23.934Z,99867.44
2022-12-08T12:35:52.064Z,99858.53
2022-12-08T12:38:43.699Z,99857.72
2022-12-08T12:41:13.371Z,99853.03
2022-12-08T12:43:41.889Z,99846.16
2022-12-08T12:46:46.173Z,99862.81
2022-12-08T12:49:51.799Z,99865.88
2022-12-08T12:52:40.898Z,99860.22
2022-12-08T12:55:23.620Z,99868.91
2022-12-08T12:57:54.008Z,99870.56
2022-12-08T13:00:25.131Z,99848.66
2022-12-08T13:02:55.365Z,99866.69
2022-12-08T13:05:27.329Z,99870.53
2022-12-08T13:08:00.487Z,99862.81
2022-12-08T13:10:32.621Z,99863.84
2022-12-08T13:13:08.157Z,99863.03
2022-12-08T13:15:38.616Z,99855.16
2022-12-08T13:18:07.763Z,99854.31
2022-12-08T13:20:47.532Z,99852.91
2022-12-08T13:23:42.269Z,99846.84
2022-12-08T13:26:19.765Z,99849.28
2022-12-08T13:29:22.157Z,99844.63
2022-12-08T13:31:52.732Z,99841.56
2022-12-08T13:34:26.221Z,99844.03
2022-12-08T13:37:03.378Z,99827.00
2022-12-08T13:39:37.917Z,99835.50
2022-12-08T13:42:16.776Z,99845.44
2022-12-08T13:47:59.912Z,99843.25
2022-12-08T13:59:28.543Z,99832.50
2022-12-08T14:01:59.609Z,99829.28
2022-12-08T14:05:16.192Z,99809.09
2022-12-08T14:07:17.799Z,99839.97
2022-12-08T14:09:48.106Z,99820.50
2022-12-08T14:12:21.508Z,99818.09
2022-12-08T14:15:07.796Z,99829.44
2022-12-08T14:17:36.283Z,99836.31
2022-12-08T14:20:07.797Z,99838.34
2022-12-08T14:22:38.192Z,99838.53
2022-12-08T14:25:08.528Z,99826.16
2022-12-08T14:27:39.211Z,99821.06
2022-12-08T14:30:10.580Z,99816.38
2022-12-08T14:32:44.425Z,99821.66
2022-12-08T14:35:29.234Z,99831.16
2022-12-08T14:38:00.638Z,99838.47
2022-12-08T14:40:34.175Z,99830.94
2022-12-08T14:43:19.456Z,99840.66
2022-12-08T14:45:53.898Z,99845.31
2022-12-08T14:48:24.131Z,99840.22
2022-12-08T14:51:15.074Z,99837.00
2022-12-08T14:53:46.943Z,99836.19
2022-12-08T14:56:22.448Z,99842.06
2022-12-08T14:59:04.081Z,99841.44
2022-12-08T15:01:32.789Z,99838.22
2022-12-08T15:04:12.780Z,99837.78
2022-12-08T15:06:48.244Z,99839.41
2022-12-08T15:09:30.448Z,99844.06
2022-12-08T15:12:03.155Z,99821.56
2022-12-08T15:14:35.025Z,99833.91
2022-12-08T15:17:03.211Z,99821.94
2022-12-08T15:19:33.493Z,99834.13
2022-12-08T15:22:13.541Z,99826.03
2022-12-08T15:24:41.545Z,99813.00
2022-12-08T15:27:17.509Z,99818.69
2022-12-08T15:29:48.172Z,99835.75
2022-12-08T15:32:19.246Z,99835.97
2022-12-08T15:34:47.318Z,99800.06
2022-12-08T15:37:27.211Z,99813.84
2022-12-08T15:39:58.908Z,99809.81
2022-12-08T15:42:29.920Z,99824.59
2022-12-08T15:44:59.589Z,99810.59
2022-12-08T15:47:27.976Z,99821.72
2022-12-08T15:49:58.861Z,99844.50
2022-12-08T15:52:29.581Z,99835.81
2022-12-08T15:54:57.530Z,99819.97
2022-12-08T15:58:10.883Z,99827.06
2022-12-08T16:00:51.867Z,99831.31
2022-12-08T16:09:14.161Z,99806.50
2022-12-08T16:12:08.861Z,99838.75
2022-12-08T16:17:30.032Z,99843.41
2022-12-08T16:19:58.356Z,99836.88
2022-12-08T16:22:52.737Z,99842.16
2022-12-08T16:25:19.906Z,99846.19
2022-12-08T16:30:38.336Z,99831.78
2022-12-08T16:33:08.371Z,99827.09
2022-12-08T16:35:36.183Z,99837.03
2022-12-08T16:38:04.694Z,99845.53
2022-12-08T16:40:33.232Z,99838.41
2022-12-08T16:43:00.020Z,99807.63
2022-12-08T16:45:30.330Z,99809.59
2022-12-08T16:48:02.151Z,99829.09
2022-12-08T16:50:34.400Z,99829.47
2022-12-08T16:53:05.931Z,99823.63
2022-12-08T16:55:35.654Z,99826.63
2022-12-08T16:58:04.675Z,99823.75
2022-12-08T17:00:37.434Z,99823.16
2022-12-08T17:03:08.562Z,99794.50
2022-12-08T17:05:41.390Z,99825.53
2022-12-08T17:08:09.862Z,99804.66
2022-12-08T17:10:40.124Z,99814.59
2022-12-08T17:13:09.190Z,99831.81
2022-12-08T17:15:37.496Z,99828.09
2022-12-08T17:18:05.511Z,99796.84
2022-12-08T17:20:36.359Z,99815.50
2022-12-08T17:23:06.243Z,99814.69
2022-12-08T17:25:34.146Z,99836.00
2022-12-08T17:28:04.420Z,99817.94
2022-12-08T17:30:32.207Z,99834.81
2022-12-08T17:32:59.919Z,99792.84
2022-12-08T17:35:28.232Z,99821.06
2022-12-08T17:41:41.331Z,99805.03
2022-12-08T17:44:16.747Z,99796.88
2022-12-08T17:46:52.222Z,99821.66
2022-12-08T17:49:24.470Z,99817.44
2022-12-08T17:51:55.320Z,99820.63
2022-12-08T17:54:23.708Z,99797.09
2022-12-08T17:56:51.894Z,99794.81
2022-12-08T17:59:21.781Z,99767.25
2022-12-08T18:01:49.700Z,99815.06
2022-12-08T18:04:17.967Z,99806.56
2022-12-08T18:06:45.810Z,99761.06
2022-12-08T18:09:16.273Z,99807.34
2022-12-08T18:11:46.197Z,99788.28
2022-12-08T18:14:16.662Z,99800.84
2022-12-08T18:16:55.587Z,99806.47
2022-12-08T18:19:24.037Z,99801.16
2022-12-08T18:21:51.881Z,99806.88
2022-12-08T18:24:22.603Z,99807.22
2022-12-08T18:27:05.530Z,99782.50
2022-12-08T18:29:33.933Z,99787.75
2022-12-08T18:32:03.263Z,99808.38
2022-12-08T18:34:31.581Z,99768.00
2022-12-08T18:36:59.985Z,99767.16
2022-12-08T18:39:31.403Z,99769.78
2022-12-08T18:42:02.689Z,99730.34
2022-12-08T18:44:30.924Z,99756.91
2022-12-08T18:46:58.873Z,99802.13
2022-12-08T18:49:28.512Z,99758.66
2022-12-08T18:51:56.498Z,99789.06
2022-12-08T18:54:37.191Z,99804.91
2022-12-08T18:57:12.893Z,99768.28
2022-12-08T18:59:41.647Z,99792.91
2022-12-08T19:02:12.544Z,99735.50
2022-12-08T19:04:43.898Z,99780.91
2022-12-08T19:07:12.213Z,99768.97
2022-12-08T19:09:43.255Z,99796.78
2022-12-08T19:12:16.163Z,99783.41
2022-12-08T19:14:46.797Z,99768.97
2022-12-08T19:17:15.390Z,99768.13
2022-12-08T19:19:46.035Z,99773.84
2022-12-08T19:22:14.963Z,99797.75
2022-12-08T19:24:44.999Z,99800.38
2022-12-08T19:27:13.442Z,99755.91
2022-12-08T19:29:41.854Z,99798.41
2022-12-08T19:32:09.625Z,99803.63
2022-12-08T19:34:38.941Z,99798.59
2022-12-08T19:37:09.284Z,99779.63
2022-12-08T19:39:54.927Z,99777.16
2022-12-08T19:42:40.172Z,99798.34
2022-12-08T19:45:12.208Z,99749.53
2022-12-08T19:47:41.028Z,99783.22
2022-12-08T19:50:29.741Z,99795.13
2022-12-08T19:52:59.307Z,99770.41
2022-12-08T19:55:27.926Z,99779.44
2022-12-08T19:57:56.759Z,99795.63
2022-12-08T20:00:25.540Z,99795.16
2022-12-08T20:02:53.492Z,99800.66
2022-12-08T20:05:21.791Z,99768.72
2022-12-08T20:07:49.773Z,99789.66
2022-12-08T20:10:23.353Z,99791.19
2022-12-08T20:12:51.295Z,99790.72
2022-12-08T20:15:19.822Z,99731.25
2022-12-08T20:17:47.718Z,99766.00
2022-12-08T20:20:16.213Z,99791.38
2022-12-08T20:22:46.187Z,99793.81
2022-12-08T20:25:15.101Z,99791.19
2022-12-08T20:27:44.534Z,99786.13
2022-12-08T20:30:17.064Z,99777.00
2022-12-08T20:32:45.537Z,99786.75
2022-12-08T20:35:14.062Z,99788.34
2022-12-08T20:37:41.864Z,99765.50
2022-12-08T20:40:11.065Z,99787.00
2022-12-08T20:42:38.929Z,99766.88
2022-12-08T20:45:10.133Z,99786.63
2022-12-08T20:47:40.916Z,99770.13
2022-12-08T20:50:10.894Z,99752.34
2022-12-08T20:52:39.031Z,99765.56
2022-12-08T20:55:09.031Z,99775.19
2022-12-08T20:57:39.878Z,99765.25
2022-12-08T21:00:11.499Z,99776.84
2022-12-08T21:02:46.947Z,99774.22
2022-12-08T21:05:18.327Z,99760.41
2022-12-08T21:07:47.547Z,99784.28
2022-12-08T21:10:15.548Z,99786.09
2022-12-08T21:12:43.977Z,99757.03
2022-12-08T21:15:13.703Z,99771.50
2022-12-08T21:17:42.606Z,99757.63
2022-12-08T21:20:11.227Z,99777.56
2022-12-08T21:22:41.651Z,99781.00
2022-12-08T21:25:10.488Z,99785.63
2022-12-08T21:27:42.974Z,99789.25
2022-12-08T21:30:17.888Z,99777.63
2022-12-08T21:32:46.451Z,99791.25
2022-12-08T21:35:17.649Z,99750.88
2022-12-08T21:37:47.468Z,99769.50
2022-12-08T21:40:15.682Z,99786.00
2022-12-08T21:42:46.846Z,99782.75
2022-12-08T21:45:18.858Z,99772.00
2022-12-08T21:47:49.764Z,99767.88
2022-12-08T21:50:18.537Z,99779.69
2022-12-08T21:52:49.068Z,99776.00
2022-12-08T21:55:20.842Z,99777.63
2022-12-08T21:57:49.256Z,99736.38
2022-12-08T22:00:22.314Z,99750.63
2022-12-08T22:02:51.211Z,99714.66
2022-12-08T22:05:23.751Z,99770.25
2022-12-08T22:07:53.855Z,99779.72
2022-12-08T22:10:23.089Z,99755.00
2022-12-08T22:12:51.382Z,99745.41
2022-12-08T22:15:21.798Z,99756.63
2022-12-08T22:17:51.567Z,99770.63
2022-12-08T22:20:20.163Z,99752.72
2022-12-08T22:22:48.093Z,99751.13
2022-12-08T22:25:16.137Z,99746.88
2022-12-08T22:27:44.028Z,99753.38
2022-12-08T22:30:13.371Z,99772.25
2022-12-08T22:32:43.125Z,99756.63
2022-12-08T22:35:11.286Z,99743.34
2022-12-08T22:37:39.869Z,99742.28
2022-12-08T22:40:09.544Z,99769.16
2022-12-08T22:42:38.176Z,99741.31
2022-12-08T22:45:06.873Z,99773.97
2022-12-08T22:47:35.846Z,99748.31
2022-12-08T22:50:06.378Z,99775.56
2022-12-08T22:52:34.609Z,99771.19
2022-12-08T22:55:02.902Z,99726.81
2022-12-08T22:57:30.916Z,99747.63
2022-12-08T22:59:58.807Z,99725.66
2022-12-08T23:02:29.987Z,99757.28
2022-12-08T23:04:57.982Z,99773.59
2022-12-08T23:07:28.073Z,99726.81
2022-12-08T23:09:56.100Z,99769.09
2022-12-08T23:12:24.620Z,99756.28
2022-12-08T23:14:52.661Z,99765.22
2022-12-08T23:17:20.862Z,99763.06
2022-12-08T23:19:48.916Z,99763.88
2022-12-08T23:22:16.800Z,99769.91
2022-12-08T23:24:46.424Z,99758.97
2022-12-08T23:27:14.262Z,99723.31
2022-12-08T23:29:42.578Z,99750.78
2022-12-08T23:32:10.623Z,99756.72
2022-12-08T23:34:38.834Z,99757.66
2022-12-08T23:37:06.710Z,99753.41
2022-12-08T23:39:35.423Z,99710.94
2022-12-08T23:42:05.037Z,99733.69
2022-12-08T23:44:33.353Z,99706.88
2022-12-08T23:47:01.273Z,99716.81
2022-12-08T23:49:29.737Z,99720.34
2022-12-08T23:51:57.732Z,99710.69
2022-12-08T23:54:25.765Z,99749.03
2022-12-08T23:56:54.136Z,99718.09
2022-12-08T23:59:23.544Z,99740.09
